Time;durP1;ratioP1;P1;durP2;ratioP2;P2;SDS_P1;SDS_P2;PMS_P1;PMS_P2;Temp;Humidity;BMP_temperature;BMP_pressure;BME280_temperature;BME280_humidity;BME280_pressure;Samples;Min_cycle;Max_cycle;Signal;HPM_P1;HPM_P2
2020/12/05 00:01:01;;;;;;;61.00;47.05;;;;;;;;;;5052411;28;20378;-82
2020/12/05 00:03:28;;;;;;;55.88;45.88;;;;;;;;;;5058296;28;20509;-83
2020/12/05 00:05:54;;;;;;;59.05;47.35;;;;;;;;;;5046554;28;21034;-85
2020/12/05 00:08:20;;;;;;;59.97;48.72;;;;;;;;;;5035749;28;20863;-83
2020/12/05 00:10:46;;;;;;;59.25;48.70;;;;;;;;;;5042362;28;20445;-83
2020/12/05 00:13:12;;;;;;;63.20;50.60;;;;;;;;;;5055071;28;20845;-84
2020/12/05 00:15:38;;;;;;;60.08;49.95;;;;;;;;;;5055416;28;20453;-83
2020/12/05 00:18:05;;;;;;;63.13;51.93;;;;;;;;;;5054483;28;20358;-84
2020/12/05 00:20:31;;;;;;;59.00;49.20;;;;;;;;;;5055081;28;20459;-84
2020/12/05 00:22:57;;;;;;;61.10;51.03;;;;;;;;;;5047677;28;20824;-84
2020/12/05 00:25:23;;;;;;;65.45;52.83;;;;;;;;;;5034939;28;20992;-84
2020/12/05 00:27:49;;;;;;;60.17;50.38;;;;;;;;;;5034311;28;20368;-82
2020/12/05 00:30:15;;;;;;;62.40;51.47;;;;;;;;;;5055419;28;20359;-84
2020/12/05 00:32:41;;;;;;;60.47;50.45;;;;;;;;;;5043786;28;20994;-82
2020/12/05 00:35:08;;;;;;;62.67;50.53;;;;;;;;;;5054240;28;20868;-83
2020/12/05 00:37:34;;;;;;;62.03;50.35;;;;;;;;;;5053867;28;20906;-83
2020/12/05 00:40:00;;;;;;;61.78;50.58;;;;;;;;;;5035494;28;20874;-84
2020/12/05 00:42:27;;;;;;;63.47;50.65;;;;;;;;;;5041927;28;20378;-84
2020/12/05 00:44:53;;;;;;;64.60;52.83;;;;;;;;;;5042659;28;20406;-82
2020/12/05 00:47:20;;;;;;;69.53;55.37;;;;;;;;;;5042181;28;20438;-82
2020/12/05 00:49:46;;;;;;;64.70;52.28;;;;;;;;;;5041618;28;20376;-83
2020/12/05 00:52:12;;;;;;;66.68;52.95;;;;;;;;;;5060273;28;20414;-83
2020/12/05 00:54:38;;;;;;;65.33;52.87;;;;;;;;;;5044346;28;20402;-83
2020/12/05 00:57:04;;;;;;;67.05;53.97;;;;;;;;;;5062313;28;20791;-83
2020/12/05 00:59:30;;;;;;;65.60;53.78;;;;;;;;;;5064770;28;20378;-83
2020/12/05 01:01:56;;;;;;;67.53;52.43;;;;;;;;;;5065148;28;20416;-83
2020/12/05 01:04:23;;;;;;;66.10;53.83;;;;;;;;;;5062158;28;20411;-83
2020/12/05 01:06:49;;;;;;;67.38;53.88;;;;;;;;;;5046339;28;20378;-83
2020/12/05 01:09:15;;;;;;;68.53;53.50;;;;;;;;;;5050944;28;20382;-84
2020/12/05 01:11:46;;;;;;;70.05;55.25;;;;;;;;;;5049900;28;20420;-83
2020/12/05 01:14:12;;;;;;;63.35;50.67;;;;;;;;;;5060215;28;20426;-83
2020/12/05 01:16:38;;;;;;;61.22;50.40;;;;;;;;;;5062157;28;20843;-83
2020/12/05 01:19:04;;;;;;;62.83;52.30;;;;;;;;;;5042524;28;20945;-83
2020/12/05 01:21:30;;;;;;;62.92;51.42;;;;;;;;;;5042827;28;20378;-83
2020/12/05 01:23:56;;;;;;;65.72;52.58;;;;;;;;;;5064362;28;20908;-82
2020/12/05 01:26:22;;;;;;;64.57;52.60;;;;;;;;;;5039976;28;20372;-82
2020/12/05 01:28:48;;;;;;;64.68;52.17;;;;;;;;;;5050319;28;20877;-82
2020/12/05 01:31:15;;;;;;;61.95;50.15;;;;;;;;;;5033886;28;20375;-82
2020/12/05 01:33:41;;;;;;;62.40;50.85;;;;;;;;;;5032373;28;20506;-82
2020/12/05 01:36:07;;;;;;;63.08;51.50;;;;;;;;;;5032572;28;20463;-83
2020/12/05 01:38:33;;;;;;;61.67;50.53;;;;;;;;;;5033428;28;20491;-83
2020/12/05 01:41:00;;;;;;;63.13;51.22;;;;;;;;;;5041507;28;20406;-83
2020/12/05 01:43:27;;;;;;;60.63;51.00;;;;;;;;;;5052140;28;20480;-83
2020/12/05 01:45:53;;;;;;;61.28;50.60;;;;;;;;;;5054987;28;20370;-83
2020/12/05 01:48:19;;;;;;;61.70;49.70;;;;;;;;;;5037066;28;20378;-82
2020/12/05 01:50:46;;;;;;;60.17;50.17;;;;;;;;;;5052783;28;20377;-82
2020/12/05 01:53:16;;;;;;;62.58;50.80;;;;;;;;;;5070189;28;20401;-82
2020/12/05 01:55:46;;;;;;;63.00;51.30;;;;;;;;;;5052995;28;20382;-81
2020/12/05 01:58:12;;;;;;;62.03;50.25;;;;;;;;;;5069835;28;20917;-82
2020/12/05 02:00:38;;;;;;;67.45;53.70;;;;;;;;;;5051060;28;20457;-81
2020/12/05 02:03:04;;;;;;;61.17;50.75;;;;;;;;;;5060822;28;20426;-81
2020/12/05 02:05:55;;;;;;;66.82;52.28;;;;;;;;;;5046118;28;20380;-82
2020/12/05 02:08:27;;;;;;;64.45;51.88;;;;;;;;;;5068962;28;20394;-81
2020/12/05 02:10:53;;;;;;;64.15;50.75;;;;;;;;;;5062042;28;20385;-81
2020/12/05 02:13:22;;;;;;;64.55;51.70;;;;;;;;;;5058846;28;20374;-81
2020/12/05 02:15:49;;;;;;;63.10;51.10;;;;;;;;;;5054099;28;20422;-82
2020/12/05 02:18:16;;;;;;;64.63;51.65;;;;;;;;;;5051139;28;20451;-82
2020/12/05 02:20:43;;;;;;;65.95;52.83;;;;;;;;;;5047659;28;20453;-81
2020/12/05 02:23:09;;;;;;;67.18;53.25;;;;;;;;;;5052790;28;20397;-82
2020/12/05 02:25:35;;;;;;;65.22;52.22;;;;;;;;;;5033640;28;20387;-82
2020/12/05 02:28:05;;;;;;;67.68;53.95;;;;;;;;;;5052518;28;20465;-82
2020/12/05 02:30:32;;;;;;;68.97;53.92;;;;;;;;;;5065297;28;20425;-82
2020/12/05 02:32:59;;;;;;;62.30;51.95;;;;;;;;;;5033108;28;20391;-82
2020/12/05 02:35:25;;;;;;;63.50;50.65;;;;;;;;;;5069831;28;20432;-82
2020/12/05 02:37:54;;;;;;;66.70;52.50;;;;;;;;;;5062170;28;20368;-81
2020/12/05 02:40:20;;;;;;;68.13;54.20;;;;;;;;;;5033161;28;20765;-82
2020/12/05 02:42:46;;;;;;;70.18;55.42;;;;;;;;;;5050601;28;20450;-83
2020/12/05 02:45:12;;;;;;;67.55;54.42;;;;;;;;;;5050934;28;20376;-82
2020/12/05 02:47:38;;;;;;;66.53;53.88;;;;;;;;;;5068690;28;20362;-81
2020/12/05 02:50:05;;;;;;;67.88;53.28;;;;;;;;;;5051705;28;20424;-81
2020/12/05 02:52:31;;;;;;;69.43;53.78;;;;;;;;;;5052144;28;20365;-82
2020/12/05 02:54:57;;;;;;;64.72;52.55;;;;;;;;;;5043610;28;20379;-82
2020/12/05 02:57:23;;;;;;;67.07;52.77;;;;;;;;;;5065902;28;20401;-82
2020/12/05 02:59:49;;;;;;;67.68;53.05;;;;;;;;;;5052123;28;20370;-82
2020/12/05 03:02:14;;;;;;;66.20;53.40;;;;;;;;;;5070279;28;20868;-81
2020/12/05 03:04:40;;;;;;;61.65;52.28;;;;;;;;;;5040159;28;20402;-81
2020/12/05 03:07:08;;;;;;;64.65;52.33;;;;;;;;;;5056346;28;20457;-80
2020/12/05 03:09:34;;;;;;;64.72;52.92;;;;;;;;;;5068413;28;20379;-82
2020/12/05 03:12:00;;;;;;;64.80;52.45;;;;;;;;;;5054554;28;20851;-82
2020/12/05 03:14:26;;;;;;;65.65;51.03;;;;;;;;;;5067469;28;20860;-81
2020/12/05 03:16:52;;;;;;;64.72;51.30;;;;;;;;;;5039321;28;20894;-82
2020/12/05 03:19:18;;;;;;;63.28;51.63;;;;;;;;;;5054486;28;20368;-82
2020/12/05 03:21:44;;;;;;;64.60;51.05;;;;;;;;;;5061316;28;20453;-82
2020/12/05 03:24:11;;;;;;;62.67;51.10;;;;;;;;;;5045129;28;20400;-82
2020/12/05 03:26:36;;;;;;;63.25;50.42;;;;;;;;;;5050373;28;20706;-82
2020/12/05 03:29:02;;;;;;;60.22;49.70;;;;;;;;;;5072081;28;20373;-82
2020/12/05 03:33:59;;;;;;;63.15;51.17;;;;;;;;;;5073495;28;20876;-83
2020/12/05 03:36:25;;;;;;;65.22;52.17;;;;;;;;;;5055867;28;20413;-81
2020/12/05 03:38:53;;;;;;;60.35;48.65;;;;;;;;;;5039464;28;20407;-82
2020/12/05 03:41:19;;;;;;;58.08;47.10;;;;;;;;;;5053782;28;20395;-81
2020/12/05 03:43:45;;;;;;;60.38;47.95;;;;;;;;;;5043069;28;20433;-82
2020/12/05 03:46:11;;;;;;;58.25;47.95;;;;;;;;;;5056288;28;20869;-81
2020/12/05 03:48:37;;;;;;;61.20;49.17;;;;;;;;;;5041663;28;20376;-81
2020/12/05 03:51:03;;;;;;;59.70;49.17;;;;;;;;;;5053883;28;20381;-81
2020/12/05 03:53:29;;;;;;;60.78;48.10;;;;;;;;;;5036608;28;20372;-82
2020/12/05 03:55:56;;;;;;;61.20;49.95;;;;;;;;;;5062758;28;20392;-82
2020/12/05 03:58:22;;;;;;;57.72;47.40;;;;;;;;;;5072872;28;20362;-82
2020/12/05 04:00:48;;;;;;;61.13;47.33;;;;;;;;;;5039928;28;20390;-83
2020/12/05 04:03:15;;;;;;;58.80;48.55;;;;;;;;;;5055404;28;20406;-81
2020/12/05 04:05:41;;;;;;;57.73;47.23;;;;;;;;;;5069446;28;20395;-81
2020/12/05 04:08:07;;;;;;;59.90;47.45;;;;;;;;;;5036031;28;20391;-81
2020/12/05 04:10:33;;;;;;;57.38;47.47;;;;;;;;;;5062629;28;20398;-82
2020/12/05 04:12:59;;;;;;;60.08;48.05;;;;;;;;;;5044173;28;20374;-82
2020/12/05 04:15:25;;;;;;;60.00;47.50;;;;;;;;;;5053711;28;20379;-82
2020/12/05 04:17:51;;;;;;;55.47;44.93;;;;;;;;;;5043658;28;20378;-81
2020/12/05 04:20:18;;;;;;;58.78;46.42;;;;;;;;;;5055165;28;20906;-81
2020/12/05 04:22:44;;;;;;;54.35;44.55;;;;;;;;;;5058593;28;20376;-81
2020/12/05 04:25:10;;;;;;;54.87;44.90;;;;;;;;;;5058006;28;20456;-82
2020/12/05 04:27:36;;;;;;;55.58;45.10;;;;;;;;;;5042097;28;20887;-82
2020/12/05 04:30:03;;;;;;;52.58;44.65;;;;;;;;;;5045548;28;20386;-83
2020/12/05 04:32:29;;;;;;;53.95;43.85;;;;;;;;;;5053224;28;20456;-82
2020/12/05 04:34:56;;;;;;;54.25;44.67;;;;;;;;;;5070933;28;20385;-81
2020/12/05 04:37:23;;;;;;;56.17;45.47;;;;;;;;;;5058027;28;20453;-82
2020/12/05 04:39:49;;;;;;;55.85;45.47;;;;;;;;;;5045154;28;20366;-82
2020/12/05 04:42:15;;;;;;;55.20;45.72;;;;;;;;;;5054581;28;20366;-81
2020/12/05 04:44:41;;;;;;;53.47;44.88;;;;;;;;;;5041251;28;20770;-82
2020/12/05 04:47:07;;;;;;;53.58;43.50;;;;;;;;;;5052927;28;20370;-81
2020/12/05 04:49:35;;;;;;;54.65;44.75;;;;;;;;;;5048843;28;20455;-81
2020/12/05 04:52:14;;;;;;;54.88;45.00;;;;;;;;;;5043127;28;20378;-82
2020/12/05 04:54:40;;;;;;;52.92;42.70;;;;;;;;;;5048876;28;20382;-83
2020/12/05 04:57:08;;;;;;;55.28;45.25;;;;;;;;;;5053497;28;20477;-82
2020/12/05 04:59:34;;;;;;;54.00;43.90;;;;;;;;;;5040334;28;20376;-82
2020/12/05 05:02:04;;;;;;;54.20;42.72;;;;;;;;;;5057640;28;20374;-82
2020/12/05 05:04:30;;;;;;;54.17;44.47;;;;;;;;;;5065666;28;20452;-83
2020/12/05 05:07:15;;;;;;;54.85;45.03;;;;;;;;;;5054571;28;20394;-82
2020/12/05 05:09:57;;;;;;;54.63;44.03;;;;;;;;;;5053719;28;20370;-82
2020/12/05 05:12:28;;;;;;;55.05;45.33;;;;;;;;;;5038811;28;20398;-82
2020/12/05 05:14:54;;;;;;;57.72;45.47;;;;;;;;;;5057323;28;20372;-83
2020/12/05 05:17:20;;;;;;;48.97;42.15;;;;;;;;;;5052264;28;20390;-82
2020/12/05 05:19:46;;;;;;;53.08;42.28;;;;;;;;;;5033984;28;20375;-82
2020/12/05 05:22:12;;;;;;;56.90;45.03;;;;;;;;;;5053210;28;20794;-82
2020/12/05 05:24:38;;;;;;;57.67;45.35;;;;;;;;;;5051198;28;20958;-83
2020/12/05 05:27:06;;;;;;;54.43;44.93;;;;;;;;;;5060873;28;20848;-82
2020/12/05 05:29:43;;;;;;;56.55;46.13;;;;;;;;;;5057220;28;20458;-81
2020/12/05 05:34:36;;;;;;;58.85;47.45;;;;;;;;;;5071119;28;20469;-82
2020/12/05 05:37:12;;;;;;;54.58;44.38;;;;;;;;;;5053213;28;20780;-81
2020/12/05 05:39:54;;;;;;;57.15;46.17;;;;;;;;;;5047176;28;20376;-82
2020/12/05 05:42:30;;;;;;;60.35;48.83;;;;;;;;;;5051816;28;20364;-82
2020/12/05 05:45:15;;;;;;;60.80;48.90;;;;;;;;;;5046864;28;20910;-82
2020/12/05 05:47:41;;;;;;;59.55;46.55;;;;;;;;;;5051707;28;20510;-82
2020/12/05 05:50:27;;;;;;;58.22;48.03;;;;;;;;;;5051431;28;20386;-83
2020/12/05 05:52:56;;;;;;;64.60;49.33;;;;;;;;;;5062742;28;20755;-82
2020/12/05 05:55:37;;;;;;;62.45;49.30;;;;;;;;;;5064335;28;20501;-82
2020/12/05 05:58:04;;;;;;;62.00;49.20;;;;;;;;;;5061362;28;20374;-81
2020/12/05 06:00:35;;;;;;;58.05;46.30;;;;;;;;;;5058264;28;20375;-83
2020/12/05 06:03:15;;;;;;;55.72;44.95;;;;;;;;;;5046764;28;20583;-82
2020/12/05 06:05:43;;;;;;;58.92;46.28;;;;;;;;;;5044532;28;20431;-82
2020/12/05 06:08:11;;;;;;;57.42;45.53;;;;;;;;;;5063400;28;20423;-82
2020/12/05 06:10:37;;;;;;;59.17;47.20;;;;;;;;;;5071361;28;20733;-83
2020/12/05 06:13:03;;;;;;;58.83;48.15;;;;;;;;;;5063147;28;20389;-82
2020/12/05 06:15:30;;;;;;;59.65;47.45;;;;;;;;;;5040951;28;20401;-83
2020/12/05 06:17:58;;;;;;;64.60;50.15;;;;;;;;;;5053396;28;20366;-83
2020/12/05 06:20:28;;;;;;;66.00;50.35;;;;;;;;;;5048810;28;20402;-82
2020/12/05 06:23:00;;;;;;;60.22;47.75;;;;;;;;;;5033947;28;20395;-83
2020/12/05 06:25:28;;;;;;;61.60;48.40;;;;;;;;;;5050486;28;20365;-82
2020/12/05 06:28:01;;;;;;;61.30;48.25;;;;;;;;;;5069002;28;20844;-83
2020/12/05 06:30:27;;;;;;;57.72;46.75;;;;;;;;;;5033321;28;20797;-83
2020/12/05 06:32:56;;;;;;;69.40;52.03;;;;;;;;;;5033237;28;20437;-82
2020/12/05 06:35:22;;;;;;;63.58;49.67;;;;;;;;;;5044991;28;20396;-81
2020/12/05 06:37:49;;;;;;;61.33;48.95;;;;;;;;;;5058077;28;20371;-83
2020/12/05 06:40:15;;;;;;;66.90;52.15;;;;;;;;;;5041785;28;20441;-83
2020/12/05 06:42:48;;;;;;;67.67;52.37;;;;;;;;;;5070691;28;20368;-83
2020/12/05 06:45:26;;;;;;;64.40;49.75;;;;;;;;;;5063395;28;20383;-82
2020/12/05 06:47:55;;;;;;;66.20;51.80;;;;;;;;;;5067536;28;20382;-83
2020/12/05 06:50:50;;;;;;;67.53;53.22;;;;;;;;;;5052956;28;20378;-82
2020/12/05 06:53:22;;;;;;;65.40;51.70;;;;;;;;;;5038515;28;20376;-83
2020/12/05 06:55:48;;;;;;;65.63;50.75;;;;;;;;;;5063495;28;20376;-83
2020/12/05 06:58:14;;;;;;;64.93;50.70;;;;;;;;;;5052017;28;20429;-83
2020/12/05 07:00:41;;;;;;;63.75;50.42;;;;;;;;;;5058395;28;20370;-82
2020/12/05 07:03:11;;;;;;;62.67;49.45;;;;;;;;;;5041942;28;20487;-82
2020/12/05 07:05:38;;;;;;;60.15;48.55;;;;;;;;;;5035029;28;20372;-82
2020/12/05 07:08:23;;;;;;;61.23;49.47;;;;;;;;;;5042286;28;20462;-82
2020/12/05 07:10:53;;;;;;;63.58;51.72;;;;;;;;;;5052910;28;20362;-83
2020/12/05 07:13:20;;;;;;;60.20;49.83;;;;;;;;;;5033385;28;20406;-83
2020/12/05 07:15:47;;;;;;;61.78;48.85;;;;;;;;;;5059473;28;20900;-81
2020/12/05 07:18:33;;;;;;;55.30;46.22;;;;;;;;;;5049340;28;20406;-82
2020/12/05 07:20:59;;;;;;;57.03;45.55;;;;;;;;;;5066776;28;20362;-83
2020/12/05 07:23:25;;;;;;;56.15;44.67;;;;;;;;;;5055377;28;20418;-83
2020/12/05 07:25:51;;;;;;;51.00;43.05;;;;;;;;;;5033383;28;20779;-82
2020/12/05 07:28:17;;;;;;;51.65;42.70;;;;;;;;;;5054834;28;20454;-82
2020/12/05 07:30:44;;;;;;;49.77;41.53;;;;;;;;;;5033169;28;20430;-82
2020/12/05 07:33:10;;;;;;;54.55;45.55;;;;;;;;;;5035358;28;20391;-83
2020/12/05 07:35:36;;;;;;;52.60;43.17;;;;;;;;;;5069699;28;20394;-82
2020/12/05 07:38:11;;;;;;;54.05;44.70;;;;;;;;;;5052052;28;20393;-83
2020/12/05 07:40:37;;;;;;;54.85;44.33;;;;;;;;;;5052525;28;20445;-82
2020/12/05 07:43:03;;;;;;;54.90;44.22;;;;;;;;;;5069338;28;20896;-83
2020/12/05 07:45:32;;;;;;;51.42;41.63;;;;;;;;;;5065189;28;20387;-82
2020/12/05 07:47:59;;;;;;;49.72;41.03;;;;;;;;;;5033182;28;20368;-83
2020/12/05 07:50:32;;;;;;;53.05;42.80;;;;;;;;;;5040934;28;20930;-84
2020/12/05 07:52:58;;;;;;;51.63;41.95;;;;;;;;;;5039267;28;20371;-82
2020/12/05 07:55:28;;;;;;;48.92;41.50;;;;;;;;;;5036987;28;21254;-83
2020/12/05 07:57:55;;;;;;;46.90;40.88;;;;;;;;;;5046567;28;20426;-84
2020/12/05 08:00:21;;;;;;;47.47;40.72;;;;;;;;;;5067883;28;20429;-83
2020/12/05 08:03:02;;;;;;;47.03;39.15;;;;;;;;;;5039234;28;20985;-84
2020/12/05 08:05:38;;;;;;;42.05;36.63;;;;;;;;;;5045230;28;20489;-82
2020/12/05 08:08:08;;;;;;;47.15;38.50;;;;;;;;;;5066593;28;20374;-83
2020/12/05 08:10:35;;;;;;;44.50;39.63;;;;;;;;;;5051667;28;20412;-83
2020/12/05 08:13:12;;;;;;;45.60;39.20;;;;;;;;;;5053141;28;20391;-82
2020/12/05 08:15:39;;;;;;;43.50;37.95;;;;;;;;;;5039177;28;20866;-83
2020/12/05 08:18:05;;;;;;;43.60;36.28;;;;;;;;;;5054243;28;20363;-83
2020/12/05 08:20:34;;;;;;;46.47;39.38;;;;;;;;;;5038208;28;20400;-83
2020/12/05 08:23:00;;;;;;;43.78;37.72;;;;;;;;;;5053601;28;20443;-82
2020/12/05 08:25:27;;;;;;;42.95;36.80;;;;;;;;;;5054206;28;20372;-82
2020/12/05 08:27:54;;;;;;;39.65;33.83;;;;;;;;;;5035492;28;20384;-81
2020/12/05 08:30:20;;;;;;;37.35;33.20;;;;;;;;;;5053120;28;20400;-81
2020/12/05 08:32:47;;;;;;;35.45;31.48;;;;;;;;;;5036196;28;20874;-82
2020/12/05 08:35:16;;;;;;;37.10;31.45;;;;;;;;;;5053668;28;20394;-81
2020/12/05 08:37:43;;;;;;;37.90;31.38;;;;;;;;;;5073908;28;20374;-82
2020/12/05 08:40:15;;;;;;;34.90;30.30;;;;;;;;;;5072377;28;20408;-81
2020/12/05 08:42:45;;;;;;;33.13;29.50;;;;;;;;;;5066443;28;20399;-81
2020/12/05 08:45:18;;;;;;;32.90;28.77;;;;;;;;;;5052775;28;20482;-82
2020/12/05 08:47:45;;;;;;;31.50;28.10;;;;;;;;;;5067581;28;20494;-82
2020/12/05 08:50:21;;;;;;;30.42;27.10;;;;;;;;;;5047466;28;20396;-81
2020/12/05 08:52:49;;;;;;;31.35;26.70;;;;;;;;;;5056813;28;20374;-82
2020/12/05 08:55:20;;;;;;;33.40;27.63;;;;;;;;;;5052841;28;20367;-82
2020/12/05 08:57:53;;;;;;;30.95;27.65;;;;;;;;;;5052981;28;20418;-83
2020/12/05 09:00:20;;;;;;;29.90;26.15;;;;;;;;;;5052369;28;20383;-82
2020/12/05 09:02:46;;;;;;;29.45;26.02;;;;;;;;;;5040931;28;20372;-85
2020/12/05 09:05:12;;;;;;;30.02;26.73;;;;;;;;;;5054665;28;20418;-83
2020/12/05 09:07:38;;;;;;;30.52;27.23;;;;;;;;;;5043711;28;20421;-83
2020/12/05 09:10:17;;;;;;;28.52;25.45;;;;;;;;;;5054855;28;20373;-83
2020/12/05 09:12:43;;;;;;;29.85;26.15;;;;;;;;;;5055820;28;20362;-85
2020/12/05 09:15:09;;;;;;;29.15;26.08;;;;;;;;;;5056078;28;20878;-84
2020/12/05 09:17:35;;;;;;;31.40;26.77;;;;;;;;;;5056345;28;20362;-88
2020/12/05 09:20:10;;;;;;;28.23;24.88;;;;;;;;;;5044619;28;20366;-88
2020/12/05 09:22:36;;;;;;;27.27;24.33;;;;;;;;;;5054753;28;20375;-85
2020/12/05 09:25:04;;;;;;;28.27;25.13;;;;;;;;;;5044804;28;20402;-81
2020/12/05 09:27:37;;;;;;;31.58;25.33;;;;;;;;;;5051609;28;20368;-81
2020/12/05 09:30:08;;;;;;;29.58;25.05;;;;;;;;;;5067337;28;20372;-83
2020/12/05 09:32:38;;;;;;;29.08;25.48;;;;;;;;;;5050473;28;20417;-82
2020/12/05 09:35:04;;;;;;;28.13;24.92;;;;;;;;;;5069852;28;20382;-83
2020/12/05 09:37:30;;;;;;;28.45;24.38;;;;;;;;;;5070022;28;20401;-82
2020/12/05 09:39:56;;;;;;;26.38;23.58;;;;;;;;;;5040225;28;20864;-85
2020/12/05 09:42:23;;;;;;;27.15;24.15;;;;;;;;;;5058782;28;20751;-81
2020/12/05 09:44:51;;;;;;;25.60;22.63;;;;;;;;;;5059483;28;20405;-81
2020/12/05 09:47:17;;;;;;;26.48;22.83;;;;;;;;;;5041719;28;20380;-81
2020/12/05 09:49:44;;;;;;;26.75;22.00;;;;;;;;;;5056383;28;20379;-83
2020/12/05 09:52:10;;;;;;;24.85;22.13;;;;;;;;;;5040664;28;20377;-83
2020/12/05 09:54:36;;;;;;;25.55;21.40;;;;;;;;;;5058938;28;20411;-84
2020/12/05 09:57:03;;;;;;;23.98;21.38;;;;;;;;;;5059846;28;20366;-83
2020/12/05 09:59:29;;;;;;;22.70;19.88;;;;;;;;;;5060634;28;21210;-83
2020/12/05 10:01:56;;;;;;;22.65;20.20;;;;;;;;;;5060103;28;20390;-87
2020/12/05 10:04:23;;;;;;;22.13;19.30;;;;;;;;;;5037564;28;20404;-82
2020/12/05 10:06:49;;;;;;;21.55;19.00;;;;;;;;;;5043315;28;20460;-83
2020/12/05 10:09:15;;;;;;;21.52;19.00;;;;;;;;;;5041707;28;20370;-83
2020/12/05 10:11:41;;;;;;;20.35;18.10;;;;;;;;;;5043694;28;20383;-83
2020/12/05 10:14:07;;;;;;;20.30;18.05;;;;;;;;;;5059633;28;20447;-81
2020/12/05 10:16:34;;;;;;;21.80;18.75;;;;;;;;;;5042914;28;20503;-82
2020/12/05 10:19:01;;;;;;;20.05;17.02;;;;;;;;;;5063330;28;20366;-85
2020/12/05 10:21:28;;;;;;;20.48;17.77;;;;;;;;;;5041521;28;20415;-89
2020/12/05 10:23:54;;;;;;;21.35;17.90;;;;;;;;;;5059593;28;20402;-81
2020/12/05 10:26:20;;;;;;;20.73;17.17;;;;;;;;;;5052105;28;20374;-82
2020/12/05 10:28:46;;;;;;;22.90;19.23;;;;;;;;;;5042313;28;20415;-81
2020/12/05 10:31:12;;;;;;;20.38;17.90;;;;;;;;;;5062358;28;20480;-81
2020/12/05 10:33:38;;;;;;;20.38;18.05;;;;;;;;;;5035223;28;20800;-81
2020/12/05 10:36:04;;;;;;;21.38;17.90;;;;;;;;;;5043251;28;20386;-81
2020/12/05 10:38:30;;;;;;;20.52;18.33;;;;;;;;;;5051822;28;20779;-80
2020/12/05 10:40:57;;;;;;;20.33;18.10;;;;;;;;;;5049326;28;21227;-80
2020/12/05 10:43:23;;;;;;;22.15;19.00;;;;;;;;;;5068520;28;20453;-80
2020/12/05 10:45:49;;;;;;;22.77;18.93;;;;;;;;;;5067891;28;20461;-81
2020/12/05 10:48:15;;;;;;;25.40;18.80;;;;;;;;;;5042871;28;20370;-81
2020/12/05 10:50:41;;;;;;;23.30;18.95;;;;;;;;;;5052369;28;20367;-81
2020/12/05 10:53:07;;;;;;;22.35;19.25;;;;;;;;;;5057715;28;20372;-81
2020/12/05 10:55:34;;;;;;;23.55;18.75;;;;;;;;;;5053247;28;20360;-81
2020/12/05 10:58:00;;;;;;;22.33;19.00;;;;;;;;;;5049597;28;21146;-81
2020/12/05 11:00:26;;;;;;;23.50;19.25;;;;;;;;;;5031775;28;20931;-81
2020/12/05 11:02:52;;;;;;;23.02;18.40;;;;;;;;;;5049204;28;20749;-81
2020/12/05 11:05:18;;;;;;;24.17;19.75;;;;;;;;;;5063855;28;20904;-81
2020/12/05 11:07:44;;;;;;;25.40;20.88;;;;;;;;;;5039745;28;20389;-81
2020/12/05 11:10:10;;;;;;;24.43;20.90;;;;;;;;;;5050457;28;20432;-81
2020/12/05 11:12:36;;;;;;;23.77;19.90;;;;;;;;;;5043311;28;20453;-81
2020/12/05 11:15:03;;;;;;;24.67;19.88;;;;;;;;;;5048316;28;20459;-81
2020/12/05 11:17:29;;;;;;;25.73;20.98;;;;;;;;;;5042923;28;20378;-81
2020/12/05 11:19:55;;;;;;;24.30;20.50;;;;;;;;;;5040663;28;20521;-82
2020/12/05 11:22:21;;;;;;;24.75;20.70;;;;;;;;;;5037048;28;20381;-81
2020/12/05 11:24:48;;;;;;;24.17;19.92;;;;;;;;;;5070174;28;20436;-82
2020/12/05 11:27:14;;;;;;;24.00;20.65;;;;;;;;;;5042787;28;20431;-83
2020/12/05 11:29:40;;;;;;;26.33;21.15;;;;;;;;;;5053864;28;20447;-81
2020/12/05 11:32:06;;;;;;;24.33;21.08;;;;;;;;;;5047976;28;20360;-81
2020/12/05 11:34:32;;;;;;;24.10;20.27;;;;;;;;;;5063297;28;20389;-81
2020/12/05 11:36:58;;;;;;;27.02;22.33;;;;;;;;;;5046687;28;20391;-83
2020/12/05 11:39:24;;;;;;;26.38;21.13;;;;;;;;;;5064575;28;20367;-83
2020/12/05 11:41:51;;;;;;;25.08;20.63;;;;;;;;;;5056296;28;20455;-84
2020/12/05 11:44:17;;;;;;;24.30;20.50;;;;;;;;;;5046313;28;20398;-82
2020/12/05 11:46:43;;;;;;;24.88;21.60;;;;;;;;;;5058039;28;20782;-83
2020/12/05 11:49:10;;;;;;;25.35;21.40;;;;;;;;;;5045792;28;20380;-79
2020/12/05 11:51:38;;;;;;;26.63;21.73;;;;;;;;;;5066485;28;20374;-81
2020/12/05 11:54:04;;;;;;;24.73;20.80;;;;;;;;;;5045365;28;20462;-80
2020/12/05 11:56:30;;;;;;;25.67;21.35;;;;;;;;;;5061668;28;20405;-81
2020/12/05 11:58:57;;;;;;;24.50;20.97;;;;;;;;;;5060527;28;20718;-83
2020/12/05 12:01:24;;;;;;;26.02;21.33;;;;;;;;;;5063334;28;20368;-83
2020/12/05 12:03:50;;;;;;;26.20;21.60;;;;;;;;;;5062487;28;20399;-81
2020/12/05 12:06:18;;;;;;;25.48;21.10;;;;;;;;;;5043865;28;20745;-82
2020/12/05 12:08:48;;;;;;;23.83;21.08;;;;;;;;;;5062121;28;20371;-81
2020/12/05 12:11:37;;;;;;;25.33;21.67;;;;;;;;;;5043452;28;20398;-81
2020/12/05 12:14:06;;;;;;;25.77;21.85;;;;;;;;;;5031183;28;21061;-83
2020/12/05 12:16:34;;;;;;;25.35;21.55;;;;;;;;;;5061389;28;20820;-82
2020/12/05 12:19:04;;;;;;;26.57;22.73;;;;;;;;;;5062012;28;20368;-79
2020/12/05 12:21:36;;;;;;;25.45;21.95;;;;;;;;;;5066494;28;20358;-84
2020/12/05 12:24:02;;;;;;;27.05;21.77;;;;;;;;;;5043103;28;20898;-82
2020/12/05 12:26:34;;;;;;;25.50;22.30;;;;;;;;;;5069357;28;20363;-81
2020/12/05 12:29:06;;;;;;;27.63;22.80;;;;;;;;;;5064255;28;20376;-81
2020/12/05 12:31:32;;;;;;;27.30;22.88;;;;;;;;;;5058347;28;20395;-81
2020/12/05 12:34:01;;;;;;;24.40;21.45;;;;;;;;;;5042258;28;20776;-83
2020/12/05 12:36:27;;;;;;;25.13;22.42;;;;;;;;;;5065372;28;20384;-80
2020/12/05 12:38:53;;;;;;;25.85;21.65;;;;;;;;;;5063656;28;20408;-80
2020/12/05 12:41:19;;;;;;;29.15;22.75;;;;;;;;;;5061906;28;21134;-81
2020/12/05 12:43:46;;;;;;;33.47;23.30;;;;;;;;;;5054208;28;20402;-80
2020/12/05 12:46:14;;;;;;;27.23;22.98;;;;;;;;;;5042709;28;20909;-81
2020/12/05 12:48:40;;;;;;;25.92;22.23;;;;;;;;;;5042614;28;20880;-80
2020/12/05 12:51:08;;;;;;;30.05;24.83;;;;;;;;;;5061678;28;20358;-80
2020/12/05 12:53:34;;;;;;;29.88;23.65;;;;;;;;;;5060489;28;20466;-80
2020/12/05 12:56:00;;;;;;;29.75;24.45;;;;;;;;;;5060955;28;20374;-81
2020/12/05 13:01:22;;;;;;;27.92;23.83;;;;;;;;;;5053604;28;20843;-79
2020/12/05 13:03:48;;;;;;;28.02;23.23;;;;;;;;;;5039729;28;20494;-81
2020/12/05 13:06:14;;;;;;;28.50;23.65;;;;;;;;;;5058305;28;20375;-79
2020/12/05 13:08:41;;;;;;;26.58;22.67;;;;;;;;;;5061915;28;20423;-79
2020/12/05 13:11:07;;;;;;;26.25;22.55;;;;;;;;;;5041819;28;20364;-81
2020/12/05 13:13:33;;;;;;;27.23;23.27;;;;;;;;;;5071541;28;20403;-81
2020/12/05 13:15:59;;;;;;;30.33;23.90;;;;;;;;;;5070683;28;20358;-81
2020/12/05 13:18:25;;;;;;;28.88;23.23;;;;;;;;;;5053142;28;20377;-79
2020/12/05 13:20:51;;;;;;;29.90;24.13;;;;;;;;;;5070664;28;20364;-79
2020/12/05 13:23:17;;;;;;;26.63;23.27;;;;;;;;;;5053182;28;20397;-81
2020/12/05 13:25:43;;;;;;;28.65;24.90;;;;;;;;;;5071419;28;20358;-79
2020/12/05 13:28:09;;;;;;;29.50;24.87;;;;;;;;;;5053940;28;20373;-79
2020/12/05 13:30:35;;;;;;;32.47;28.23;;;;;;;;;;5071667;28;20366;-81
2020/12/05 13:33:02;;;;;;;31.83;24.40;;;;;;;;;;5052962;28;20449;-82
2020/12/05 13:35:28;;;;;;;30.10;23.73;;;;;;;;;;5052160;28;20440;-82
2020/12/05 13:37:54;;;;;;;28.15;24.10;;;;;;;;;;5070293;28;20362;-81
2020/12/05 13:40:21;;;;;;;28.40;24.10;;;;;;;;;;5053036;28;20401;-81
2020/12/05 13:42:47;;;;;;;30.08;25.00;;;;;;;;;;5049304;28;20391;-81
2020/12/05 13:45:13;;;;;;;28.52;23.77;;;;;;;;;;5049580;28;20750;-80
2020/12/05 13:47:39;;;;;;;29.17;24.10;;;;;;;;;;5049304;28;20441;-81
2020/12/05 13:50:05;;;;;;;31.55;25.40;;;;;;;;;;5050317;28;20367;-83
2020/12/05 13:52:31;;;;;;;30.25;24.75;;;;;;;;;;5047877;28;21074;-82
2020/12/05 13:54:57;;;;;;;29.83;23.63;;;;;;;;;;5048001;28;20419;-81
2020/12/05 13:57:23;;;;;;;27.98;23.27;;;;;;;;;;5067687;28;20362;-83
2020/12/05 13:59:49;;;;;;;28.83;24.58;;;;;;;;;;5067473;28;20458;-81
2020/12/05 14:02:15;;;;;;;53.85;42.92;;;;;;;;;;5065256;28;20358;-83
2020/12/05 14:04:41;;;;;;;63.33;51.47;;;;;;;;;;5066484;28;20398;-82
2020/12/05 14:07:07;;;;;;;55.63;43.47;;;;;;;;;;5049682;28;20782;-82
2020/12/05 14:09:33;;;;;;;42.03;35.97;;;;;;;;;;5049695;28;20845;-83
2020/12/05 14:12:01;;;;;;;33.05;28.85;;;;;;;;;;5068496;28;20362;-82
2020/12/05 14:14:27;;;;;;;29.30;26.05;;;;;;;;;;5048695;28;20388;-83
2020/12/05 14:16:53;;;;;;;30.33;25.15;;;;;;;;;;5048624;28;20374;-83
2020/12/05 14:19:19;;;;;;;32.30;27.05;;;;;;;;;;5067061;28;21235;-82
2020/12/05 14:21:45;;;;;;;43.38;37.72;;;;;;;;;;5067234;28;20449;-84
2020/12/05 14:24:11;;;;;;;34.67;30.80;;;;;;;;;;5049404;28;20394;-81
2020/12/05 14:26:37;;;;;;;32.60;27.52;;;;;;;;;;5067597;28;20460;-82